sensor_id;sensor_type;location;lat;lon;timestamp;noise_LAeq;noise_LA_min;noise_LA_max;noise_LA01;noise_LA95
47109;Laerm;32856;51.422;6.794;2023-02-17T00:02:19;47.80;44.07;57.33;;
47109;Laerm;32856;51.422;6.794;2023-02-17T00:04:46;52.23;45.60;71.92;;
47109;Laerm;32856;51.422;6.794;2023-02-17T00:07:14;49.74;42.71;62.13;;
47109;Laerm;32856;51.422;6.794;2023-02-17T00:09:41;50.69;41.75;66.36;;
47109;Laerm;32856;51.422;6.794;2023-02-17T00:12:09;51.41;44.35;61.56;;
47109;Laerm;32856;51.422;6.794;2023-02-17T00:14:37;52.20;43.29;68.15;;
47109;Laerm;32856;51.422;6.794;2023-02-17T00:17:06;53.69;44.58;70.48;;
47109;Laerm;32856;51.422;6.794;2023-02-17T00:19:35;52.35;44.43;68.59;;
47109;Laerm;32856;51.422;6.794;2023-02-17T00:22:03;48.39;41.89;62.26;;
47109;Laerm;32856;51.422;6.794;2023-02-17T00:24:31;50.02;45.20;61.86;;
47109;Laerm;32856;51.422;6.794;2023-02-17T00:26:59;54.21;44.62;63.08;;
47109;Laerm;32856;51.422;6.794;2023-02-17T00:29:26;48.31;43.24;52.79;;
47109;Laerm;32856;51.422;6.794;2023-02-17T00:31:54;50.38;44.43;60.90;;
47109;Laerm;32856;51.422;6.794;2023-02-17T00:34:22;53.19;44.51;70.26;;
47109;Laerm;32856;51.422;6.794;2023-02-17T00:36:51;52.05;44.62;75.48;;
47109;Laerm;32856;51.422;6.794;2023-02-17T00:39:18;50.21;43.29;62.20;;
47109;Laerm;32856;51.422;6.794;2023-02-17T00:41:45;51.93;45.11;63.69;;
47109;Laerm;32856;51.422;6.794;2023-02-17T00:44:14;52.23;45.17;70.95;;
47109;Laerm;32856;51.422;6.794;2023-02-17T00:46:42;49.20;44.90;59.11;;
47109;Laerm;32856;51.422;6.794;2023-02-17T00:49:13;53.26;45.83;60.54;;
47109;Laerm;32856;51.422;6.794;2023-02-17T00:51:40;48.06;44.07;65.31;;
47109;Laerm;32856;51.422;6.794;2023-02-17T00:54:09;49.81;43.44;56.36;;
47109;Laerm;32856;51.422;6.794;2023-02-17T00:56:36;54.39;43.37;73.85;;
47109;Laerm;32856;51.422;6.794;2023-02-17T00:59:04;55.98;44.07;73.90;;
47109;Laerm;32856;51.422;6.794;2023-02-17T01:01:32;48.61;44.62;58.99;;
47109;Laerm;32856;51.422;6.794;2023-02-17T01:03:59;51.09;44.03;64.99;;
47109;Laerm;32856;51.422;6.794;2023-02-17T01:06:28;49.85;44.43;74.52;;
47109;Laerm;32856;51.422;6.794;2023-02-17T01:08:55;57.60;44.35;77.47;;
47109;Laerm;32856;51.422;6.794;2023-02-17T01:11:25;46.88;43.34;50.35;;
47109;Laerm;32856;51.422;6.794;2023-02-17T01:13:53;53.62;44.62;70.59;;
47109;Laerm;32856;51.422;6.794;2023-02-17T01:16:21;46.82;42.59;54.82;;
47109;Laerm;32856;51.422;6.794;2023-02-17T01:18:49;45.89;40.98;51.89;;
47109;Laerm;32856;51.422;6.794;2023-02-17T01:21:17;54.91;43.58;73.80;;
47109;Laerm;32856;51.422;6.794;2023-02-17T01:23:44;47.30;42.29;55.96;;
47109;Laerm;32856;51.422;6.794;2023-02-17T01:26:13;48.49;42.65;54.28;;
47109;Laerm;32856;51.422;6.794;2023-02-17T01:28:42;47.42;43.09;53.09;;
47109;Laerm;32856;51.422;6.794;2023-02-17T01:31:09;47.73;43.81;51.30;;
47109;Laerm;32856;51.422;6.794;2023-02-17T01:33:37;49.22;45.66;55.95;;
47109;Laerm;32856;51.422;6.794;2023-02-17T01:36:05;54.60;43.94;72.37;;
47109;Laerm;32856;51.422;6.794;2023-02-17T01:38:33;54.53;42.98;74.67;;
47109;Laerm;32856;51.422;6.794;2023-02-17T01:41:02;48.11;43.68;54.02;;
47109;Laerm;32856;51.422;6.794;2023-02-17T01:43:29;51.60;42.82;68.70;;
47109;Laerm;32856;51.422;6.794;2023-02-17T01:45:58;54.54;43.24;75.12;;
47109;Laerm;32856;51.422;6.794;2023-02-17T01:48:27;53.08;43.58;71.17;;
47109;Laerm;32856;51.422;6.794;2023-02-17T01:50:57;49.31;44.82;52.79;;
47109;Laerm;32856;51.422;6.794;2023-02-17T01:53:27;49.19;43.99;67.17;;
47109;Laerm;32856;51.422;6.794;2023-02-17T01:55:57;56.39;43.14;76.13;;
47109;Laerm;32856;51.422;6.794;2023-02-17T01:58:25;47.91;44.23;62.05;;
47109;Laerm;32856;51.422;6.794;2023-02-17T02:00:54;53.20;44.15;70.86;;
47109;Laerm;32856;51.422;6.794;2023-02-17T02:03:25;49.71;45.30;57.39;;
47109;Laerm;32856;51.422;6.794;2023-02-17T02:05:54;55.55;47.02;67.18;;
47109;Laerm;32856;51.422;6.794;2023-02-17T02:08:22;51.68;44.90;62.32;;
47109;Laerm;32856;51.422;6.794;2023-02-17T02:10:49;53.02;45.86;69.92;;
47109;Laerm;32856;51.422;6.794;2023-02-17T02:13:16;54.62;44.35;73.16;;
47109;Laerm;32856;51.422;6.794;2023-02-17T02:15:46;54.18;45.23;70.65;;
47109;Laerm;32856;51.422;6.794;2023-02-17T02:18:32;47.71;43.63;64.05;;
47109;Laerm;32856;51.422;6.794;2023-02-17T02:21:12;50.15;44.73;55.56;;
47109;Laerm;32856;51.422;6.794;2023-02-17T02:23:51;51.87;44.27;68.86;;
47109;Laerm;32856;51.422;6.794;2023-02-17T02:26:29;49.95;44.87;60.05;;
47109;Laerm;32856;51.422;6.794;2023-02-17T02:29:12;51.30;42.59;67.49;;
47109;Laerm;32856;51.422;6.794;2023-02-17T02:31:48;53.28;43.68;70.47;;
47109;Laerm;32856;51.422;6.794;2023-02-17T02:34:25;49.84;43.86;58.30;;
47109;Laerm;32856;51.422;6.794;2023-02-17T02:36:55;52.30;43.58;68.81;;
47109;Laerm;32856;51.422;6.794;2023-02-17T02:39:28;48.25;44.23;60.28;;
47109;Laerm;32856;51.422;6.794;2023-02-17T02:41:57;47.42;42.47;53.73;;
47109;Laerm;32856;51.422;6.794;2023-02-17T02:44:25;47.83;42.82;55.47;;
47109;Laerm;32856;51.422;6.794;2023-02-17T02:46:56;53.17;45.75;70.47;;
47109;Laerm;32856;51.422;6.794;2023-02-17T02:49:24;52.03;46.30;61.82;;
47109;Laerm;32856;51.422;6.794;2023-02-17T02:51:53;54.79;44.47;71.73;;
47109;Laerm;32856;51.422;6.794;2023-02-17T02:54:25;52.18;45.36;71.74;;
47109;Laerm;32856;51.422;6.794;2023-02-17T02:56:58;54.29;45.63;72.64;;
47109;Laerm;32856;51.422;6.794;2023-02-17T02:59:32;50.58;45.94;59.14;;
47109;Laerm;32856;51.422;6.794;2023-02-17T03:02:07;53.99;45.33;70.91;;
47109;Laerm;32856;51.422;6.794;2023-02-17T03:04:41;53.95;44.76;72.85;;
47109;Laerm;32856;51.422;6.794;2023-02-17T03:07:12;52.68;45.04;59.16;;
47109;Laerm;32856;51.422;6.794;2023-02-17T03:09:46;57.79;47.55;75.95;;
47109;Laerm;32856;51.422;6.794;2023-02-17T03:12:14;52.53;46.05;67.27;;
47109;Laerm;32856;51.422;6.794;2023-02-17T03:14:41;60.30;45.20;80.60;;
47109;Laerm;32856;51.422;6.794;2023-02-17T03:17:09;51.04;46.35;64.64;;
47109;Laerm;32856;51.422;6.794;2023-02-17T03:19:37;54.47;45.54;72.08;;
47109;Laerm;32856;51.422;6.794;2023-02-17T03:22:06;50.69;46.05;59.84;;
47109;Laerm;32856;51.422;6.794;2023-02-17T03:24:35;53.18;48.13;65.04;;
47109;Laerm;32856;51.422;6.794;2023-02-17T03:27:03;57.05;46.02;73.16;;
47109;Laerm;32856;51.422;6.794;2023-02-17T03:29:30;52.26;48.34;62.53;;
47109;Laerm;32856;51.422;6.794;2023-02-17T03:31:58;55.27;47.90;70.36;;
47109;Laerm;32856;51.422;6.794;2023-02-17T03:34:25;54.00;46.89;68.12;;
47109;Laerm;32856;51.422;6.794;2023-02-17T03:36:52;58.14;47.79;74.62;;
47109;Laerm;32856;51.422;6.794;2023-02-17T03:39:21;50.41;45.66;62.34;;
47109;Laerm;32856;51.422;6.794;2023-02-17T03:41:49;52.42;46.15;63.60;;
47109;Laerm;32856;51.422;6.794;2023-02-17T03:44:17;53.54;48.99;62.81;;
47109;Laerm;32856;51.422;6.794;2023-02-17T03:46:44;57.39;46.69;73.91;;
47109;Laerm;32856;51.422;6.794;2023-02-17T03:49:12;55.75;46.35;70.71;;
47109;Laerm;32856;51.422;6.794;2023-02-17T03:51:39;54.71;50.19;67.44;;
47109;Laerm;32856;51.422;6.794;2023-02-17T03:54:07;59.10;48.32;78.09;;
47109;Laerm;32856;51.422;6.794;2023-02-17T03:56:35;53.82;49.09;60.33;;
47109;Laerm;32856;51.422;6.794;2023-02-17T03:59:03;60.53;48.54;79.01;;
47109;Laerm;32856;51.422;6.794;2023-02-17T04:01:31;59.35;50.37;76.82;;
47109;Laerm;32856;51.422;6.794;2023-02-17T04:03:58;55.57;50.14;68.59;;
47109;Laerm;32856;51.422;6.794;2023-02-17T04:06:26;56.63;50.07;73.97;;
47109;Laerm;32856;51.422;6.794;2023-02-17T04:08:53;54.85;47.57;69.42;;
47109;Laerm;32856;51.422;6.794;2023-02-17T04:11:21;57.77;48.55;74.76;;
47109;Laerm;32856;51.422;6.794;2023-02-17T04:13:49;58.15;48.55;75.02;;
47109;Laerm;32856;51.422;6.794;2023-02-17T04:16:17;58.76;48.73;74.79;;
47109;Laerm;32856;51.422;6.794;2023-02-17T04:18:44;56.27;49.62;72.92;;
47109;Laerm;32856;51.422;6.794;2023-02-17T04:21:12;55.31;48.51;70.38;;
47109;Laerm;32856;51.422;6.794;2023-02-17T04:23:39;57.88;50.20;75.07;;
47109;Laerm;32856;51.422;6.794;2023-02-17T04:26:07;56.56;49.77;70.65;;
47109;Laerm;32856;51.422;6.794;2023-02-17T04:28:36;58.53;49.52;71.99;;
47109;Laerm;32856;51.422;6.794;2023-02-17T04:31:05;57.04;48.16;72.56;;
47109;Laerm;32856;51.422;6.794;2023-02-17T04:33:33;58.76;50.12;71.69;;
47109;Laerm;32856;51.422;6.794;2023-02-17T04:36:00;60.70;51.32;75.73;;
47109;Laerm;32856;51.422;6.794;2023-02-17T04:38:29;57.39;51.51;69.90;;
47109;Laerm;32856;51.422;6.794;2023-02-17T04:40:56;58.05;50.71;70.51;;
47109;Laerm;32856;51.422;6.794;2023-02-17T04:43:24;58.42;50.65;73.36;;
47109;Laerm;32856;51.422;6.794;2023-02-17T04:45:52;62.20;51.33;77.81;;
47109;Laerm;32856;51.422;6.794;2023-02-17T04:48:21;58.52;49.65;70.80;;
47109;Laerm;32856;51.422;6.794;2023-02-17T04:50:49;56.57;50.54;70.83;;
47109;Laerm;32856;51.422;6.794;2023-02-17T04:53:16;57.88;50.82;72.89;;
47109;Laerm;32856;51.422;6.794;2023-02-17T04:55:46;61.21;51.85;73.01;;
47109;Laerm;32856;51.422;6.794;2023-02-17T04:58:14;59.89;51.56;71.99;;
47109;Laerm;32856;51.422;6.794;2023-02-17T05:00:41;59.76;51.34;73.89;;
47109;Laerm;32856;51.422;6.794;2023-02-17T05:03:09;58.04;50.09;73.02;;
47109;Laerm;32856;51.422;6.794;2023-02-17T05:05:38;60.63;50.33;73.76;;
47109;Laerm;32856;51.422;6.794;2023-02-17T05:08:05;59.29;51.79;72.31;;
47109;Laerm;32856;51.422;6.794;2023-02-17T05:10:33;61.42;52.94;74.53;;
47109;Laerm;32856;51.422;6.794;2023-02-17T05:13:01;60.79;52.50;75.45;;
47109;Laerm;32856;51.422;6.794;2023-02-17T05:15:28;62.78;52.21;76.89;;
47109;Laerm;32856;51.422;6.794;2023-02-17T05:17:56;61.73;50.97;74.00;;
47109;Laerm;32856;51.422;6.794;2023-02-17T05:20:24;60.11;50.39;72.86;;
47109;Laerm;32856;51.422;6.794;2023-02-17T05:22:53;60.99;53.40;72.22;;
47109;Laerm;32856;51.422;6.794;2023-02-17T05:25:20;61.16;50.71;75.11;;
47109;Laerm;32856;51.422;6.794;2023-02-17T05:27:47;61.28;50.76;76.83;;
47109;Laerm;32856;51.422;6.794;2023-02-17T05:30:15;58.89;50.73;74.85;;
47109;Laerm;32856;51.422;6.794;2023-02-17T05:32:42;61.00;52.29;73.98;;
47109;Laerm;32856;51.422;6.794;2023-02-17T05:35:10;60.41;51.84;74.63;;
47109;Laerm;32856;51.422;6.794;2023-02-17T05:37:37;58.94;52.47;71.50;;
47109;Laerm;32856;51.422;6.794;2023-02-17T05:40:07;63.12;53.20;75.41;;
47109;Laerm;32856;51.422;6.794;2023-02-17T05:42:34;61.69;51.26;73.38;;
47109;Laerm;32856;51.422;6.794;2023-02-17T05:45:02;61.59;50.37;75.96;;
47109;Laerm;32856;51.422;6.794;2023-02-17T05:47:30;62.18;50.66;74.88;;
47109;Laerm;32856;51.422;6.794;2023-02-17T05:49:57;59.88;52.44;71.82;;
47109;Laerm;32856;51.422;6.794;2023-02-17T05:52:24;59.41;51.44;70.24;;
47109;Laerm;32856;51.422;6.794;2023-02-17T05:54:52;65.17;53.36;80.23;;
47109;Laerm;32856;51.422;6.794;2023-02-17T05:57:21;61.61;52.62;73.76;;
47109;Laerm;32856;51.422;6.794;2023-02-17T05:59:48;63.62;53.22;79.83;;
47109;Laerm;32856;51.422;6.794;2023-02-17T06:02:15;63.90;52.90;78.11;;
47109;Laerm;32856;51.422;6.794;2023-02-17T06:04:43;62.78;52.14;76.32;;
47109;Laerm;32856;51.422;6.794;2023-02-17T06:07:10;61.78;52.06;76.97;;
47109;Laerm;32856;51.422;6.794;2023-02-17T06:09:38;63.12;53.70;77.33;;
47109;Laerm;32856;51.422;6.794;2023-02-17T06:12:05;63.13;53.13;73.26;;
47109;Laerm;32856;51.422;6.794;2023-02-17T06:14:35;60.55;51.47;71.69;;
47109;Laerm;32856;51.422;6.794;2023-02-17T06:17:02;64.85;54.29;80.05;;
47109;Laerm;32856;51.422;6.794;2023-02-17T06:19:30;61.72;52.44;73.41;;
47109;Laerm;32856;51.422;6.794;2023-02-17T06:21:57;62.19;52.50;73.17;;
47109;Laerm;32856;51.422;6.794;2023-02-17T06:24:25;63.47;53.46;78.55;;
47109;Laerm;32856;51.422;6.794;2023-02-17T06:26:52;60.55;53.42;72.91;;
47109;Laerm;32856;51.422;6.794;2023-02-17T06:29:20;62.81;53.40;75.24;;
47109;Laerm;32856;51.422;6.794;2023-02-17T06:31:49;63.75;51.52;77.13;;
47109;Laerm;32856;51.422;6.794;2023-02-17T06:34:17;62.36;53.83;71.52;;
47109;Laerm;32856;51.422;6.794;2023-02-17T06:36:44;62.23;51.44;73.44;;
47109;Laerm;32856;51.422;6.794;2023-02-17T06:39:12;63.83;52.85;74.25;;
47109;Laerm;32856;51.422;6.794;2023-02-17T06:41:39;61.53;51.47;73.32;;
47109;Laerm;32856;51.422;6.794;2023-02-17T06:44:08;63.96;53.35;76.42;;
47109;Laerm;32856;51.422;6.794;2023-02-17T06:46:35;63.64;53.43;77.36;;
47109;Laerm;32856;51.422;6.794;2023-02-17T06:49:04;65.51;53.73;81.63;;
47109;Laerm;32856;51.422;6.794;2023-02-17T06:51:31;62.39;53.00;73.60;;
47109;Laerm;32856;51.422;6.794;2023-02-17T06:53:59;63.31;52.99;76.91;;
47109;Laerm;32856;51.422;6.794;2023-02-17T06:56:26;63.88;53.31;76.32;;
47109;Laerm;32856;51.422;6.794;2023-02-17T06:58:53;64.11;53.46;75.82;;
47109;Laerm;32856;51.422;6.794;2023-02-17T07:01:22;62.08;52.40;75.64;;
47109;Laerm;32856;51.422;6.794;2023-02-17T07:03:51;63.66;53.54;76.56;;
47109;Laerm;32856;51.422;6.794;2023-02-17T07:06:20;65.62;52.92;79.10;;
47109;Laerm;32856;51.422;6.794;2023-02-17T07:08:48;63.92;53.16;74.44;;
47109;Laerm;32856;51.422;6.794;2023-02-17T07:11:16;62.06;52.57;72.05;;
47109;Laerm;32856;51.422;6.794;2023-02-17T07:13:44;61.02;52.92;74.43;;
47109;Laerm;32856;51.422;6.794;2023-02-17T07:16:12;63.61;53.96;78.11;;
47109;Laerm;32856;51.422;6.794;2023-02-17T07:18:40;63.64;53.84;74.55;;
47109;Laerm;32856;51.422;6.794;2023-02-17T07:21:08;65.19;53.22;81.31;;
47109;Laerm;32856;51.422;6.794;2023-02-17T07:23:38;63.52;53.38;78.91;;
47109;Laerm;32856;51.422;6.794;2023-02-17T07:26:07;61.48;52.49;73.69;;
47109;Laerm;32856;51.422;6.794;2023-02-17T07:28:35;64.57;53.21;79.10;;
47109;Laerm;32856;51.422;6.794;2023-02-17T07:31:04;64.77;52.80;78.04;;
47109;Laerm;32856;51.422;6.794;2023-02-17T07:33:33;64.66;54.25;75.97;;
47109;Laerm;32856;51.422;6.794;2023-02-17T07:36:04;64.47;52.68;79.33;;
47109;Laerm;32856;51.422;6.794;2023-02-17T07:38:32;62.90;53.14;74.21;;
47109;Laerm;32856;51.422;6.794;2023-02-17T07:41:04;63.09;52.62;74.03;;
47109;Laerm;32856;51.422;6.794;2023-02-17T07:43:32;62.50;53.63;73.18;;
47109;Laerm;32856;51.422;6.794;2023-02-17T07:46:00;65.07;52.77;81.81;;
47109;Laerm;32856;51.422;6.794;2023-02-17T07:48:28;64.00;52.26;76.65;;
47109;Laerm;32856;51.422;6.794;2023-02-17T07:50:56;62.32;51.80;73.09;;
47109;Laerm;32856;51.422;6.794;2023-02-17T07:53:23;65.43;53.82;80.66;;
47109;Laerm;32856;51.422;6.794;2023-02-17T07:55:51;64.70;52.24;74.72;;
47109;Laerm;32856;51.422;6.794;2023-02-17T07:58:20;60.68;52.31;74.39;;
47109;Laerm;32856;51.422;6.794;2023-02-17T08:00:48;63.44;53.69;74.80;;
47109;Laerm;32856;51.422;6.794;2023-02-17T08:03:16;65.02;52.76;78.08;;
47109;Laerm;32856;51.422;6.794;2023-02-17T08:05:44;63.46;51.87;79.67;;
47109;Laerm;32856;51.422;6.794;2023-02-17T08:08:14;63.87;53.18;79.34;;
47109;Laerm;32856;51.422;6.794;2023-02-17T08:10:59;65.22;51.95;83.55;;
47109;Laerm;32856;51.422;6.794;2023-02-17T08:14:00;63.30;53.64;79.67;;
47109;Laerm;32856;51.422;6.794;2023-02-17T08:16:28;62.93;53.55;75.37;;
47109;Laerm;32856;51.422;6.794;2023-02-17T08:18:56;62.63;53.13;75.34;;
47109;Laerm;32856;51.422;6.794;2023-02-17T08:21:25;60.43;52.22;73.69;;
47109;Laerm;32856;51.422;6.794;2023-02-17T08:23:53;61.28;51.87;77.00;;
47109;Laerm;32856;51.422;6.794;2023-02-17T08:26:21;64.71;53.71;74.82;;
47109;Laerm;32856;51.422;6.794;2023-02-17T08:28:49;62.47;53.30;74.54;;
47109;Laerm;32856;51.422;6.794;2023-02-17T08:31:19;65.13;53.96;77.82;;
47109;Laerm;32856;51.422;6.794;2023-02-17T08:33:47;63.49;54.13;74.74;;
47109;Laerm;32856;51.422;6.794;2023-02-17T08:36:15;62.00;53.72;74.42;;
47109;Laerm;32856;51.422;6.794;2023-02-17T08:38:43;62.97;53.43;74.62;;
47109;Laerm;32856;51.422;6.794;2023-02-17T08:41:16;63.73;53.80;74.18;;
47109;Laerm;32856;51.422;6.794;2023-02-17T08:43:45;70.36;54.67;83.54;;
47109;Laerm;32856;51.422;6.794;2023-02-17T08:46:13;64.92;54.02;79.31;;
47109;Laerm;32856;51.422;6.794;2023-02-17T08:48:42;62.73;52.99;78.35;;
47109;Laerm;32856;51.422;6.794;2023-02-17T08:51:11;60.54;53.04;72.58;;
47109;Laerm;32856;51.422;6.794;2023-02-17T08:53:39;65.38;54.11;79.67;;
47109;Laerm;32856;51.422;6.794;2023-02-17T08:56:06;63.50;52.56;77.06;;
47109;Laerm;32856;51.422;6.794;2023-02-17T08:58:34;62.44;53.08;74.73;;
47109;Laerm;32856;51.422;6.794;2023-02-17T09:01:02;63.01;52.71;77.57;;
47109;Laerm;32856;51.422;6.794;2023-02-17T09:03:32;66.86;53.36;79.68;;
47109;Laerm;32856;51.422;6.794;2023-02-17T09:06:01;62.75;53.74;74.15;;
47109;Laerm;32856;51.422;6.794;2023-02-17T09:08:29;63.54;52.78;77.87;;
47109;Laerm;32856;51.422;6.794;2023-02-17T09:10:58;64.18;53.01;75.84;;
47109;Laerm;32856;51.422;6.794;2023-02-17T09:13:25;61.97;54.10;74.16;;
47109;Laerm;32856;51.422;6.794;2023-02-17T09:15:53;64.28;53.41;79.21;;
47109;Laerm;32856;51.422;6.794;2023-02-17T09:18:21;64.04;53.20;78.83;;
47109;Laerm;32856;51.422;6.794;2023-02-17T09:20:50;63.21;52.86;76.18;;
47109;Laerm;32856;51.422;6.794;2023-02-17T09:23:19;64.14;53.32;79.21;;
47109;Laerm;32856;51.422;6.794;2023-02-17T09:25:47;67.02;52.56;80.46;;
47109;Laerm;32856;51.422;6.794;2023-02-17T09:28:16;63.05;51.93;76.27;;
47109;Laerm;32856;51.422;6.794;2023-02-17T09:30:43;63.69;53.25;78.02;;
47109;Laerm;32856;51.422;6.794;2023-02-17T09:33:11;61.80;53.32;75.31;;
47109;Laerm;32856;51.422;6.794;2023-02-17T09:35:39;64.41;51.82;79.12;;
47109;Laerm;32856;51.422;6.794;2023-02-17T09:38:06;63.32;53.11;76.52;;
47109;Laerm;32856;51.422;6.794;2023-02-17T09:40:41;66.62;54.76;78.69;;
47109;Laerm;32856;51.422;6.794;2023-02-17T09:43:11;63.22;53.72;75.08;;
47109;Laerm;32856;51.422;6.794;2023-02-17T09:45:41;62.73;53.50;75.81;;
47109;Laerm;32856;51.422;6.794;2023-02-17T09:48:13;64.30;53.43;76.92;;
47109;Laerm;32856;51.422;6.794;2023-02-17T09:50:44;63.12;53.83;74.65;;
47109;Laerm;32856;51.422;6.794;2023-02-17T09:53:14;63.84;53.74;77.19;;
47109;Laerm;32856;51.422;6.794;2023-02-17T09:55:47;65.74;54.27;75.81;;
47109;Laerm;32856;51.422;6.794;2023-02-17T09:58:17;63.20;53.60;78.15;;
47109;Laerm;32856;51.422;6.794;2023-02-17T10:00:46;63.30;51.33;79.27;;
47109;Laerm;32856;51.422;6.794;2023-02-17T10:03:15;64.59;52.74;85.13;;
47109;Laerm;32856;51.422;6.794;2023-02-17T10:05:45;60.73;51.62;73.01;;
47109;Laerm;32856;51.422;6.794;2023-02-17T10:08:17;62.76;53.80;73.93;;
47109;Laerm;32856;51.422;6.794;2023-02-17T10:10:48;63.53;53.06;74.99;;
47109;Laerm;32856;51.422;6.794;2023-02-17T10:13:18;65.17;53.74;78.17;;
47109;Laerm;32856;51.422;6.794;2023-02-17T10:15:48;62.21;52.55;74.30;;
47109;Laerm;32856;51.422;6.794;2023-02-17T10:18:18;64.53;52.17;77.66;;
47109;Laerm;32856;51.422;6.794;2023-02-17T10:20:48;62.11;51.84;76.42;;
47109;Laerm;32856;51.422;6.794;2023-02-17T10:23:18;63.14;52.70;77.02;;
47109;Laerm;32856;51.422;6.794;2023-02-17T10:26:00;63.45;52.28;75.53;;
47109;Laerm;32856;51.422;6.794;2023-02-17T10:28:38;64.61;50.89;80.08;;
47109;Laerm;32856;51.422;6.794;2023-02-17T10:31:11;63.15;50.46;77.43;;
47109;Laerm;32856;51.422;6.794;2023-02-17T10:33:43;64.71;51.08;81.02;;
47109;Laerm;32856;51.422;6.794;2023-02-17T10:36:16;64.15;53.76;80.90;;
47109;Laerm;32856;51.422;6.794;2023-02-17T10:38:48;65.14;52.44;80.44;;
47109;Laerm;32856;51.422;6.794;2023-02-17T10:41:19;62.59;53.22;76.77;;
47109;Laerm;32856;51.422;6.794;2023-02-17T10:43:47;65.15;51.60;84.16;;
47109;Laerm;32856;51.422;6.794;2023-02-17T10:46:16;64.85;52.51;79.45;;
47109;Laerm;32856;51.422;6.794;2023-02-17T10:48:46;64.60;53.04;88.04;;
47109;Laerm;32856;51.422;6.794;2023-02-17T10:51:14;62.43;52.47;74.13;;
47109;Laerm;32856;51.422;6.794;2023-02-17T10:53:43;65.07;53.11;78.73;;
47109;Laerm;32856;51.422;6.794;2023-02-17T10:56:13;63.04;52.00;73.79;;
47109;Laerm;32856;51.422;6.794;2023-02-17T10:58:47;62.32;52.62;77.02;;
47109;Laerm;32856;51.422;6.794;2023-02-17T11:01:16;60.93;51.50;75.14;;
47109;Laerm;32856;51.422;6.794;2023-02-17T11:03:45;65.17;52.74;76.32;;
47109;Laerm;32856;51.422;6.794;2023-02-17T11:06:17;64.78;53.22;77.63;;
47109;Laerm;32856;51.422;6.794;2023-02-17T11:08:48;62.27;51.53;80.57;;
47109;Laerm;32856;51.422;6.794;2023-02-17T11:11:18;63.83;53.74;81.25;;
47109;Laerm;32856;51.422;6.794;2023-02-17T11:13:56;64.48;53.82;85.61;;
47109;Laerm;32856;51.422;6.794;2023-02-17T11:16:26;64.48;52.65;79.90;;
47109;Laerm;32856;51.422;6.794;2023-02-17T11:18:54;65.20;53.38;77.52;;
47109;Laerm;32856;51.422;6.794;2023-02-17T11:21:22;62.23;52.83;74.05;;
47109;Laerm;32856;51.422;6.794;2023-02-17T11:23:51;63.83;51.65;77.00;;
47109;Laerm;32856;51.422;6.794;2023-02-17T11:26:22;64.18;54.02;83.12;;
47109;Laerm;32856;51.422;6.794;2023-02-17T11:28:50;61.97;53.40;72.88;;
47109;Laerm;32856;51.422;6.794;2023-02-17T11:31:23;61.86;51.89;78.37;;
47109;Laerm;32856;51.422;6.794;2023-02-17T11:33:51;65.59;53.22;80.99;;
47109;Laerm;32856;51.422;6.794;2023-02-17T11:38:49;64.77;52.31;75.23;;
47109;Laerm;32856;51.422;6.794;2023-02-17T11:41:17;63.84;52.31;75.94;;
47109;Laerm;32856;51.422;6.794;2023-02-17T11:43:51;63.96;53.23;75.18;;
47109;Laerm;32856;51.422;6.794;2023-02-17T11:46:26;63.31;51.83;76.09;;
47109;Laerm;32856;51.422;6.794;2023-02-17T11:49:09;63.73;51.80;74.79;;
47109;Laerm;32856;51.422;6.794;2023-02-17T11:51:48;64.27;53.08;76.85;;
47109;Laerm;32856;51.422;6.794;2023-02-17T11:54:20;64.36;51.53;85.44;;
47109;Laerm;32856;51.422;6.794;2023-02-17T11:56:54;63.78;50.49;79.74;;
47109;Laerm;32856;51.422;6.794;2023-02-17T11:59:29;63.15;51.18;74.94;;
47109;Laerm;32856;51.422;6.794;2023-02-17T12:02:14;64.53;52.29;78.26;;
47109;Laerm;32856;51.422;6.794;2023-02-17T12:04:51;63.30;52.67;73.28;;
47109;Laerm;32856;51.422;6.794;2023-02-17T12:07:24;64.50;52.50;79.08;;
47109;Laerm;32856;51.422;6.794;2023-02-17T12:09:56;64.52;53.25;73.36;;
47109;Laerm;32856;51.422;6.794;2023-02-17T12:12:29;64.47;50.77;73.76;;
47109;Laerm;32856;51.422;6.794;2023-02-17T12:15:04;64.72;51.30;77.21;;
47109;Laerm;32856;51.422;6.794;2023-02-17T12:17:37;64.51;51.00;74.89;;
47109;Laerm;32856;51.422;6.794;2023-02-17T12:20:17;62.87;51.91;76.57;;
47109;Laerm;32856;51.422;6.794;2023-02-17T12:22:51;65.87;51.95;81.34;;
47109;Laerm;32856;51.422;6.794;2023-02-17T12:25:23;64.61;50.46;77.33;;
47109;Laerm;32856;51.422;6.794;2023-02-17T12:27:55;63.46;50.98;75.75;;
47109;Laerm;32856;51.422;6.794;2023-02-17T12:30:28;65.06;52.30;74.57;;
47109;Laerm;32856;51.422;6.794;2023-02-17T12:33:06;65.22;52.71;77.25;;
47109;Laerm;32856;51.422;6.794;2023-02-17T12:35:40;62.74;51.13;76.39;;
47109;Laerm;32856;51.422;6.794;2023-02-17T12:38:10;64.28;51.44;78.96;;
47109;Laerm;32856;51.422;6.794;2023-02-17T12:40:38;64.32;52.00;75.48;;
47109;Laerm;32856;51.422;6.794;2023-02-17T12:43:07;65.74;52.39;83.30;;
47109;Laerm;32856;51.422;6.794;2023-02-17T12:45:44;64.42;50.85;73.86;;
47109;Laerm;32856;51.422;6.794;2023-02-17T12:48:15;62.86;51.84;74.24;;
47109;Laerm;32856;51.422;6.794;2023-02-17T12:50:49;64.07;52.35;74.72;;
47109;Laerm;32856;51.422;6.794;2023-02-17T12:53:20;65.99;51.42;80.25;;
47109;Laerm;32856;51.422;6.794;2023-02-17T12:55:51;62.94;50.74;74.61;;
47109;Laerm;32856;51.422;6.794;2023-02-17T12:58:21;64.33;48.46;75.43;;
47109;Laerm;32856;51.422;6.794;2023-02-17T13:00:51;64.69;49.95;76.24;;
47109;Laerm;32856;51.422;6.794;2023-02-17T13:03:22;62.44;49.41;76.51;;
47109;Laerm;32856;51.422;6.794;2023-02-17T13:05:50;62.72;49.70;74.73;;
47109;Laerm;32856;51.422;6.794;2023-02-17T13:08:26;62.47;49.89;75.52;;
47109;Laerm;32856;51.422;6.794;2023-02-17T13:10:59;63.19;49.66;75.75;;
47109;Laerm;32856;51.422;6.794;2023-02-17T13:13:28;63.92;50.47;74.81;;
47109;Laerm;32856;51.422;6.794;2023-02-17T13:16:06;64.99;49.77;77.67;;
47109;Laerm;32856;51.422;6.794;2023-02-17T13:18:36;66.60;52.11;79.88;;
47109;Laerm;32856;51.422;6.794;2023-02-17T13:21:14;64.92;49.92;77.42;;
47109;Laerm;32856;51.422;6.794;2023-02-17T13:23:43;63.86;49.20;74.14;;
47109;Laerm;32856;51.422;6.794;2023-02-17T13:31:44;63.85;48.37;77.66;;
47109;Laerm;32856;51.422;6.794;2023-02-17T13:34:21;64.79;52.21;79.24;;
47109;Laerm;32856;51.422;6.794;2023-02-17T13:36:49;66.32;51.93;78.02;;
47109;Laerm;32856;51.422;6.794;2023-02-17T13:39:29;65.60;50.18;78.23;;
47109;Laerm;32856;51.422;6.794;2023-02-17T13:41:57;65.25;49.88;80.02;;
47109;Laerm;32856;51.422;6.794;2023-02-17T13:44:26;64.38;51.71;80.04;;
47109;Laerm;32856;51.422;6.794;2023-02-17T13:46:55;62.28;48.54;72.64;;
47109;Laerm;32856;51.422;6.794;2023-02-17T13:49:26;64.97;52.13;79.40;;
47109;Laerm;32856;51.422;6.794;2023-02-17T13:51:54;66.11;51.18;79.60;;
47109;Laerm;32856;51.422;6.794;2023-02-17T13:54:32;64.37;50.98;77.62;;
47109;Laerm;32856;51.422;6.794;2023-02-17T13:57:00;65.36;49.06;73.73;;
47109;Laerm;32856;51.422;6.794;2023-02-17T13:59:27;62.78;49.55;78.34;;
47109;Laerm;32856;51.422;6.794;2023-02-17T14:01:55;65.08;48.78;77.23;;
47109;Laerm;32856;51.422;6.794;2023-02-17T14:04:23;65.30;51.09;76.96;;
47109;Laerm;32856;51.422;6.794;2023-02-17T14:06:55;64.29;48.18;76.77;;